Flight Track Log - Related Links

Times and Time Zones

All times are in EST time to prevent confusion due to time zone crossing. See the N589H flight status page for this flight to view local times or setup timezone preferences in your user account.

Time Position Orientation Groundspeed Altitude Reporting Facility
EST Latitude Longitude Course Direction KTS MPH feet Rate Location/Type
Thu 03:03:48 PM 42.4667 -71.3167 216° Southwest 155 178 1,000  Level KA90
Thu 03:04:24 PM 42.4500 -71.3333 216° Southwest 163 188 2,300 1,685 Climbing KA90
Thu 03:06:14 PM 42.3900 -71.4436 234° Southwest 206 237 5,100 1,684 Climbing Boston Center
Thu 03:07:15 PM 42.3606 -71.4978 234° Southwest 178 205 7,100 1,951 Climbing Boston Center
Thu 03:08:17 PM 42.3342 -71.5531 237° Southwest 177 204 9,100 2,000 Climbing Boston Center
Thu 03:09:18 PM 42.2878 -71.5969 215° Southwest 188 216 11,200 1,967 Climbing Boston Center
Thu 03:10:19 PM 42.2422 -71.6397 215° Southwest 199 229 13,100 1,869 Climbing Boston Center
Thu 03:11:20 PM 42.1958 -71.6808 213° Southwest 199 229 15,000 1,869 Climbing Boston Center
Thu 03:12:21 PM 42.1519 -71.7192 213° Southwest 189 217 16,900 2,000 Climbing Boston Center
Thu 03:13:23 PM 42.1089 -71.7611 216° Southwest 183 211 19,100 2,098 Climbing Boston Center
Thu 03:14:24 PM 42.0703 -71.7950 213° Southwest 169 194 21,200 1,967 Climbing Boston Center
Thu 03:15:25 PM 42.0317 -71.8300 214° Southwest 168 193 23,100 1,770 Climbing Boston Center
Thu 03:16:26 PM 41.9939 -71.8631 213° Southwest 164 189 24,800 1,426 Climbing Boston Center
Thu 03:17:27 PM 41.9517 -71.9025 215° Southwest 182 209 26,000 585 Climbing Boston Center
Thu 03:18:29 PM 41.8975 -71.9483 212° Southwest 228 262 26,000  Level Boston Center
Thu 03:19:30 PM 41.8367 -72.0039 214° Southwest 260 299 26,000  Level Boston Center
Thu 03:20:31 PM 41.7728 -72.0597 213° Southwest 272 313 26,000  Level Boston Center
Thu 03:21:32 PM 41.7086 -72.1158 213° Southwest 276 318 26,000  Level Boston Center
Thu 03:22:33 PM 41.6478 -72.1703 214° Southwest 268 308 26,000  Level Boston Center
Thu 03:23:34 PM 41.5864 -72.2247 214° Southwest 265 305 26,000  Level Boston Center
Thu 03:24:36 PM 41.5178 -72.2814 212° Southwest 264 304 26,000  Level Boston Center
Thu 03:25:37 PM 41.4564 -72.3347 213° Southwest 264 304 26,000  Level Boston Center
Thu 03:26:38 PM 41.3964 -72.3867 213° Southwest 260 299 26,000  Level Boston Center
Thu 03:27:39 PM 41.3364 -72.4400 214° Southwest 260 299 26,000  Level Boston Center
Thu 03:28:40 PM 41.2692 -72.4975 213° Southwest 260 299 26,000  Level Boston Center
Thu 03:29:42 PM 41.2089 -72.5517 214° Southwest 261 300 26,000  Level Boston Center
Thu 03:30:43 PM 41.1486 -72.6039 213° Southwest 260 299 26,000  Level Boston Center
Thu 03:31:44 PM 41.0878 -72.6556 213° Southwest 260 299 26,000  Level Boston Center
Thu 03:32:45 PM 41.0292 -72.7061 213° Southwest 254 292 26,000  Level Boston Center
Thu 03:33:46 PM 40.9700 -72.7558 212° Southwest 252 290 26,000  Level Boston Center
Thu 03:34:47 PM 40.9128 -72.8042 213° Southwest 245 282 26,000  Level Boston Center
Thu 03:35:49 PM 40.8456 -72.8642 214° Southwest 242 278 26,000  Level Boston Center
Thu 03:36:50 PM 40.7886 -72.9125 213° Southwest 243 280 26,000  Level Boston Center
Thu 03:37:51 PM 40.7319 -72.9606 213° Southwest 241 277 26,000  Level Boston Center
Thu 03:38:52 PM 40.6744 -73.0114 214° Southwest 245 282 26,000  Level Boston Center
Thu 03:39:53 PM 40.6169 -73.0589 212° Southwest 245 282 26,000  Level Boston Center
Thu 03:40:54 PM 40.5614 -73.1064 213° Southwest 243 280 26,000  Level Boston Center
Thu 03:41:56 PM 40.5031 -73.1558 213° Southwest 245 282 26,000  Level Boston Center
Thu 03:42:57 PM 40.4442 -73.2053 213° Southwest 249 287 26,000  Level Boston Center
Thu 03:43:58 PM 40.3861 -73.2550 213° Southwest 249 287 26,000  Level Boston Center
Thu 03:44:59 PM 40.3272 -73.3053 213° Southwest 252 290 26,000  Level Boston Center
Thu 03:46:00 PM 40.2667 -73.3547 212° Southwest 254 292 26,000  Level Boston Center
Thu 03:47:02 PM 40.1953 -73.4136 212° Southwest 256 295 26,000  Level Boston Center
Thu 03:48:03 PM 40.1331 -73.4647 212° Southwest 261 300 26,000  Level Boston Center
Thu 03:48:38 PM 40.1014 -73.4922 214° Southwest 272 313 26,000  Level Washington Center
Thu 03:49:38 PM 40.0378 -73.5456 213° Southwest 272 313 26,000  Level Washington Center
Thu 03:50:36 PM 39.9761 -73.5961 212° Southwest 272 313 26,000  Level Washington Center
Thu 03:51:37 PM 39.9122 -73.6467 211° Southwest 272 313 26,000  Level Washington Center
Thu 03:52:08 PM 39.8811 -73.6747 215° Southwest 268 308 26,000  Level Boston Center
Thu 03:53:09 PM 39.8175 -73.7269 212° Southwest 270 311 26,000  Level Boston Center
Thu 03:54:11 PM 39.7528 -73.7797 212° Southwest 273 314 26,000  Level Boston Center
Thu 03:55:12 PM 39.6883 -73.8322 212° Southwest 274 315 26,000  Level Boston Center
Thu 03:56:13 PM 39.6225 -73.8853 212° Southwest 276 318 26,000  Level Boston Center
Thu 03:57:14 PM 39.5439 -73.9500 212° Southwest 278 320 26,000  Level Boston Center
Thu 03:58:16 PM 39.4781 -74.0036 212° Southwest 279 321 26,000  Level Boston Center
Thu 03:59:17 PM 39.4111 -74.0572 212° Southwest 282 325 26,000  Level Boston Center
Thu 04:00:37 PM 39.3275 -74.1292 214° Southwest 277 319 26,000  Level Washington Center
Thu 04:01:38 PM 39.2592 -74.1817 211° Southwest 282 325 26,000  Level Washington Center
Thu 04:02:38 PM 39.1931 -74.2364 213° Southwest 287 330 26,000  Level Washington Center
Thu 04:03:38 PM 39.1228 -74.2914 211° Southwest 287 330 26,000  Level Washington Center
Thu 04:04:37 PM 39.0547 -74.3486 213° Southwest 292 336 26,000  Level Washington Center
Thu 04:05:37 PM 38.9864 -74.4006 211° Southwest 292 336 26,000  Level Washington Center
Thu 04:06:38 PM 38.9183 -74.4578 213° Southwest 297 342 26,000  Level Washington Center
Thu 04:07:36 PM 38.8500 -74.5122 212° Southwest 297 342 26,000  Level Washington Center
Thu 04:08:36 PM 38.7817 -74.5664 212° Southwest 297 342 26,000  Level Washington Center
Thu 04:09:37 PM 38.7111 -74.6206 211° Southwest 297 342 26,000  Level Washington Center
Thu 04:10:37 PM 38.6428 -74.6772 213° Southwest 297 342 26,000  Level Washington Center
Thu 04:11:38 PM 38.5725 -74.7314 211° Southwest 297 342 26,000  Level Washington Center
Thu 04:12:36 PM 38.5039 -74.7853 212° Southwest 297 342 26,000  Level Washington Center
Thu 04:13:36 PM 38.4356 -74.8389 212° Southwest 297 342 26,000  Level Washington Center
Thu 04:14:37 PM 38.3669 -74.8925 211° Southwest 297 342 26,000  Level Washington Center
Thu 04:15:37 PM 38.2922 -74.9517 212° Southwest 297 342 26,000  Level Washington Center
Thu 04:16:37 PM 38.2236 -74.9997 209° Southwest 297 342 26,000  Level Washington Center
Thu 04:17:38 PM 38.1572 -75.0611 216° Southwest 297 342 26,000  Level Washington Center
Thu 04:18:36 PM 38.0886 -75.1117 210° Southwest 297 342 26,000  Level Washington Center
Thu 04:19:36 PM 38.0181 -75.1622 209° Southwest 297 342 26,000  Level Washington Center
Thu 04:20:37 PM 37.9494 -75.2178 213° Southwest 297 342 26,000  Level Washington Center
Thu 04:21:38 PM 37.8808 -75.2733 213° Southwest 297 342 26,000  Level Washington Center
Thu 04:22:38 PM 37.8100 -75.3236 209° Southwest 297 342 26,000  Level Washington Center
Thu 04:23:39 PM 37.7411 -75.3792 213° Southwest 297 342 26,000  Level Washington Center
Thu 04:24:36 PM 37.6683 -75.4317 210° Southwest 297 342 26,000  Level Washington Center
Thu 04:25:37 PM 37.5994 -75.4869 212° Southwest 297 342 26,000  Level Washington Center
Thu 04:26:38 PM 37.5267 -75.5394 210° Southwest 297 342 26,000  Level Washington Center
Thu 04:27:36 PM 37.4578 -75.5944 212° Southwest 297 342 26,000  Level Washington Center
Thu 04:28:37 PM 37.3869 -75.6494 212° Southwest 297 342 26,000  Level Washington Center
Thu 04:29:37 PM 37.3139 -75.7042 211° Southwest 297 342 26,000  Level Washington Center
Thu 04:30:38 PM 37.2450 -75.7564 211° Southwest 297 342 26,000  Level Washington Center
Thu 04:31:36 PM 37.1719 -75.8108 211° Southwest 302 348 26,000  Level Washington Center
Thu 04:32:37 PM 37.1008 -75.8653 211° Southwest 302 348 26,000  Level Washington Center
Thu 04:33:37 PM 37.0297 -75.9197 211° Southwest 302 348 26,000  Level Washington Center
Thu 04:34:38 PM 36.9525 -75.9739 209° Southwest 302 348 26,000  Level Washington Center
Thu 04:35:38 PM 36.8814 -76.0256 210° Southwest 307 353 26,000  Level Washington Center
Thu 04:36:36 PM 36.8081 -76.0822 212° Southwest 307 353 26,000  Level Washington Center
Thu 04:37:36 PM 36.7369 -76.1336 210° Southwest 307 353 26,000  Level Washington Center
Thu 04:38:38 PM 36.6719 -76.1850 212° Southwest 307 353 26,000  Level Washington Center
Thu 04:39:38 PM 36.5986 -76.2414 212° Southwest 307 353 26,000  Level Washington Center
Thu 04:40:36 PM 36.5253 -76.2925 209° Southwest 307 353 26,000  Level Washington Center
Thu 04:41:37 PM 36.4542 -76.3461 211° Southwest 307 353 26,000  Level Washington Center
Thu 04:42:38 PM 36.3786 -76.3994 210° Southwest 307 353 26,000  Level Washington Center
Thu 04:43:39 PM 36.3053 -76.4553 212° Southwest 307 353 26,000  Level Washington Center
Thu 04:44:37 PM 36.2319 -76.5086 210° Southwest 312 359 26,000 -605 Level Washington Center
Thu 04:45:38 PM 36.1542 -76.5644 210° Southwest 318 366 24,800 -1,613 Descending Washington Center
Thu 04:46:36 PM 36.0744 -76.6225 210° Southwest 323 372 22,800 -1,983 Descending Washington Center
Thu 04:47:36 PM 36.0031 -76.6756 211° Southwest 318 366 20,900 -1,686 Descending Washington Center
Thu 04:48:37 PM 35.9294 -76.7283 210° Southwest 313 360 19,400 -1,475 Descending Washington Center
Thu 04:49:38 PM 35.8539 -76.7811 210° Southwest 313 360 17,900 2,281 Descending Washington Center
Thu 04:50:38 PM 35.7844 -76.8364 213° Southwest 313 360 24,000 -1,475 Climbing Washington Center
Thu 04:51:36 PM 35.7131 -76.8839 208° Southwest 313 360 15,000 -5,186 Descending Washington Center
Thu 04:52:36 PM 35.6414 -76.9339 210° Southwest 308 354 13,800 -1,289 Descending Washington Center
Thu 04:53:37 PM 35.5678 -76.9914 212° Southwest 297 342 12,400 -1,339 Descending Washington Center
Thu 04:54:37 PM 35.5006 -77.0386 210° Southwest 292 336 11,100 -706 Descending Washington Center
Thu 04:55:36 PM 35.4394 -77.0833 211° Southwest 281 323 11,000 -50 Descending Washington Center
Thu 04:56:36 PM 35.3742 -77.1306 211° Southwest 275 316 11,000  Level Washington Center
Thu 04:57:37 PM 35.3089 -77.1778 211° Southwest 275 316 11,000  Level Washington Center
Thu 04:58:38 PM 35.2394 -77.2247 209° Southwest 275 316 11,000  Level Washington Center
Thu 04:59:36 PM 35.1742 -77.2717 210° Southwest 275 316 11,000  Level Washington Center
Thu 05:00:36 PM 35.1044 -77.3208 210° Southwest 275 316 11,000  Level Washington Center
Thu 05:01:38 PM 35.0328 -77.3703 209° Southwest 275 316 11,000  Level Washington Center
Thu 05:02:36 PM 34.9675 -77.4169 210° Southwest 281 323 11,000 -50 Level Washington Center
Thu 05:03:37 PM 34.9000 -77.4661 211° Southwest 281 323 10,900 -492 Descending Washington Center
Thu 05:04:38 PM 34.8367 -77.5100 210° Southwest 275 316 10,000 -496 Descending Washington Center
Thu 05:05:38 PM 34.7711 -77.5567 210° Southwest 270 311 9,900 -1,000 Descending Washington Center
Thu 05:06:38 PM 34.7100 -77.5981 209° Southwest 270 311 8,000 -1,714 Descending Washington Center
Thu 05:07:37 PM 34.6489 -77.6369 208° Southwest 265 305 6,500 -1,513 Descending Washington Center
Thu 05:08:37 PM 34.5753 -77.6706 201° Southwest 265 305 5,000 -1,261 Descending Washington Center
Thu 05:09:36 PM 34.5100 -77.7017 201° Southwest 270 311 4,000 -950 Descending Washington Center
Thu 05:10:37 PM 34.4447 -77.7378 205° Southwest 264 304 3,100 -885 Descending Washington Center
Thu 05:12:00 PM 34.3666 -77.8250 212° Southwest  Level FlightAware Approximate

Login

Don't have an account? Register now (free) for customized features, flight alerts, and more!